Time;durP1;ratioP1;P1;durP2;ratioP2;P2;SDS_P1;SDS_P2;PMS_P1;PMS_P2;Temp;Humidity;BMP_temperature;BMP_pressure;BME280_temperature;BME280_humidity;BME280_pressure;Samples;Min_cycle;Max_cycle;Signal;HPM_P1;HPM_P2
2023/06/23 00:01:20;;;;;;;45.90;41.78;;;19.40;99.90;;;;;;5038295;28;20040;-67
2023/06/23 00:03:46;;;;;;;46.75;42.75;;;19.00;99.90;;;;;;5050615;28;20532;-67
2023/06/23 00:06:15;;;;;;;44.28;40.47;;;19.70;99.90;;;;;;5031355;28;20041;-68
2023/06/23 00:08:41;;;;;;;44.40;40.42;;;19.00;99.90;;;;;;5047087;28;20128;-67
2023/06/23 00:11:08;;;;;;;45.72;41.70;;;19.30;99.90;;;;;;5010558;28;20104;-67
2023/06/23 00:13:34;;;;;;;45.75;41.85;;;19.20;99.90;;;;;;5034430;28;20581;-67
2023/06/23 00:16:06;;;;;;;46.30;42.35;;;19.50;99.90;;;;;;5017795;28;20143;-67
2023/06/23 00:18:36;;;;;;;47.25;43.15;;;19.90;99.90;;;;;;5047986;28;20040;-67
2023/06/23 00:21:03;;;;;;;46.72;42.63;;;18.80;99.90;;;;;;5048267;28;20131;-67
2023/06/23 00:23:29;;;;;;;46.42;42.38;;;19.60;99.90;;;;;;5041037;28;20033;-67
2023/06/23 00:25:55;;;;;;;45.78;41.80;;;19.20;99.90;;;;;;5050907;28;20486;-67
2023/06/23 00:28:20;;;;;;;46.53;42.65;;;18.80;99.90;;;;;;5040251;28;20041;-67
2023/06/23 00:30:46;;;;;;;49.33;44.95;;;18.80;99.90;;;;;;5047688;28;20503;-67
2023/06/23 00:33:12;;;;;;;49.25;44.78;;;18.70;99.90;;;;;;5050851;28;20037;-67
2023/06/23 00:35:38;;;;;;;48.05;43.67;;;19.10;99.90;;;;;;5050891;28;20091;-67
2023/06/23 00:38:04;;;;;;;46.20;42.00;;;18.70;99.90;;;;;;5048763;28;20136;-68
2023/06/23 00:40:29;;;;;;;48.40;44.22;;;19.40;99.90;;;;;;5050570;28;20131;-67
2023/06/23 00:42:55;;;;;;;47.67;43.50;;;18.90;99.90;;;;;;5050440;28;20045;-67
2023/06/23 00:45:21;;;;;;;48.42;44.10;;;18.70;99.90;;;;;;5048459;28;20064;-68
2023/06/23 00:47:47;;;;;;;47.05;42.75;;;18.60;99.90;;;;;;5035615;28;20052;-67
2023/06/23 00:50:15;;;;;;;48.05;43.47;;;19.20;99.90;;;;;;5050398;28;20037;-68
2023/06/23 00:52:49;;;;;;;46.80;42.58;;;18.50;99.90;;;;;;5043463;28;20067;-67
2023/06/23 00:55:38;;;;;;;46.60;42.40;;;18.60;99.90;;;;;;5025740;28;20061;-67
2023/06/23 00:58:08;;;;;;;45.58;41.40;;;18.70;99.90;;;;;;5036931;28;20135;-67
2023/06/23 01:00:33;;;;;;;45.03;40.95;;;19.40;99.90;;;;;;5050498;28;20071;-68
2023/06/23 01:02:59;;;;;;;44.10;40.25;;;18.50;99.90;;;;;;5050513;28;20045;-67
2023/06/23 01:05:36;;;;;;;45.28;41.08;;;18.70;99.90;;;;;;5045384;28;20041;-68
2023/06/23 01:08:11;;;;;;;45.08;41.17;;;18.60;99.90;;;;;;5047347;28;20033;-67
2023/06/23 01:10:56;;;;;;;44.38;40.40;;;19.50;99.90;;;;;;5049492;28;20108;-68
2023/06/23 01:13:31;;;;;;;45.97;41.75;;;18.60;99.90;;;;;;5050712;28;20434;-68
2023/06/23 01:16:11;;;;;;;48.30;44.08;;;18.60;99.90;;;;;;5034386;28;20045;-67
2023/06/23 01:19:09;;;;;;;49.75;45.05;;;19.00;99.90;;;;;;5046563;28;20045;-67
2023/06/23 01:21:59;;;;;;;47.28;43.00;;;19.40;99.90;;;;;;5050070;28;20039;-67
2023/06/23 01:25:01;;;;;;;48.67;43.83;;;18.40;99.90;;;;;;5048173;28;20036;-67
2023/06/23 01:27:51;;;;;;;48.00;43.72;;;19.50;99.90;;;;;;5048615;28;20053;-68
2023/06/23 01:30:17;;;;;;;46.40;42.17;;;19.40;99.90;;;;;;5048446;28;20037;-67
2023/06/23 01:32:50;;;;;;;45.38;41.08;;;18.50;99.90;;;;;;5061371;28;20052;-68
2023/06/23 01:35:21;;;;;;;46.35;42.28;;;19.40;99.90;;;;;;5049510;28;20122;-68
2023/06/23 01:37:51;;;;;;;45.78;41.40;;;19.50;99.90;;;;;;5046319;28;20041;-67
2023/06/23 01:40:18;;;;;;;44.50;40.38;;;19.20;99.90;;;;;;5049931;28;20037;-68
2023/06/23 01:42:54;;;;;;;45.25;41.00;;;19.30;99.90;;;;;;5049954;28;20061;-68
2023/06/23 01:45:22;;;;;;;45.03;41.00;;;18.30;99.90;;;;;;5050240;28;20047;-67
2023/06/23 01:47:48;;;;;;;43.25;39.25;;;18.90;99.90;;;;;;5062749;28;20439;-68
2023/06/23 01:50:16;;;;;;;43.95;39.63;;;19.50;99.90;;;;;;5046218;28;20041;-68
2023/06/23 01:52:44;;;;;;;43.53;39.60;;;18.20;99.90;;;;;;5049853;28;20116;-67
2023/06/23 01:55:12;;;;;;;43.70;39.72;;;18.30;99.90;;;;;;5040199;28;20124;-68
2023/06/23 01:57:39;;;;;;;44.92;40.92;;;19.40;99.90;;;;;;5041235;28;20119;-68
2023/06/23 02:00:13;;;;;;;44.58;40.67;;;19.00;99.90;;;;;;5053446;28;20048;-68
2023/06/23 02:02:44;;;;;;;45.22;40.85;;;18.70;99.90;;;;;;5053466;28;20131;-68
2023/06/23 02:05:12;;;;;;;45.08;40.97;;;19.10;99.90;;;;;;5053613;28;20075;-67
2023/06/23 02:07:45;;;;;;;43.28;39.47;;;18.80;99.90;;;;;;5045659;28;20582;-68
2023/06/23 02:10:11;;;;;;;42.72;38.58;;;18.80;99.90;;;;;;5051965;28;20041;-67
2023/06/23 02:12:41;;;;;;;42.88;38.60;;;18.40;99.90;;;;;;5053428;28;20033;-67
2023/06/23 02:15:08;;;;;;;40.65;36.90;;;18.20;99.90;;;;;;5050978;28;20041;-68
2023/06/23 02:17:34;;;;;;;42.05;38.03;;;18.10;99.90;;;;;;5046576;28;20037;-67
2023/06/23 02:20:09;;;;;;;42.78;38.50;;;19.10;99.90;;;;;;5053557;28;20041;-67
2023/06/23 02:22:36;;;;;;;42.05;38.25;;;19.20;99.90;;;;;;5044541;28;20041;-67
2023/06/23 02:25:02;;;;;;;41.60;37.63;;;18.00;99.90;;;;;;5053581;28;20045;-67
2023/06/23 02:27:28;;;;;;;41.00;37.25;;;17.90;99.90;;;;;;5047265;28;20087;-67
2023/06/23 02:29:56;;;;;;;39.85;36.15;;;18.40;99.90;;;;;;5053164;28;20041;-67
2023/06/23 02:32:21;;;;;;;39.67;36.15;;;18.20;99.90;;;;;;5051646;28;20048;-68
2023/06/23 02:34:47;;;;;;;41.25;37.35;;;18.60;99.90;;;;;;5053030;28;20443;-67
2023/06/23 02:37:16;;;;;;;40.50;36.50;;;19.00;99.90;;;;;;5050199;28;20355;-68
2023/06/23 02:39:49;;;;;;;39.97;36.20;;;18.70;99.90;;;;;;5052775;28;20045;-67
2023/06/23 02:42:21;;;;;;;38.88;35.17;;;19.20;99.90;;;;;;5052889;28;20441;-67
2023/06/23 02:44:54;;;;;;;40.35;36.80;;;18.00;99.90;;;;;;5053072;28;20048;-67
2023/06/23 02:47:22;;;;;;;40.35;36.38;;;19.00;99.90;;;;;;5049446;28;20095;-68
2023/06/23 02:49:50;;;;;;;40.00;36.45;;;18.90;99.90;;;;;;5047506;28;20037;-67
2023/06/23 02:52:18;;;;;;;41.60;37.50;;;17.90;99.90;;;;;;5032509;28;20117;-67
2023/06/23 02:54:49;;;;;;;42.40;38.65;;;19.00;99.90;;;;;;5040195;28;20481;-67
2023/06/23 02:57:17;;;;;;;44.50;40.35;;;18.90;99.90;;;;;;5034535;28;20047;-67
2023/06/23 02:59:44;;;;;;;42.25;38.33;;;17.90;99.90;;;;;;5051520;28;20521;-68
2023/06/23 03:02:13;;;;;;;40.72;36.90;;;19.10;99.90;;;;;;5052321;28;20037;-68
2023/06/23 03:04:41;;;;;;;40.15;36.50;;;18.90;99.90;;;;;;5052109;28;20048;-67
2023/06/23 03:07:08;;;;;;;39.55;35.90;;;18.00;99.90;;;;;;5043417;28;20049;-67
2023/06/23 03:09:34;;;;;;;39.20;35.60;;;18.00;99.90;;;;;;5012389;28;20030;-68
2023/06/23 03:12:00;;;;;;;39.53;35.90;;;18.00;99.90;;;;;;5012910;28;20048;-67
2023/06/23 03:14:26;;;;;;;39.38;35.67;;;19.30;99.90;;;;;;5041335;28;20037;-68
2023/06/23 03:17:00;;;;;;;39.35;35.85;;;17.90;99.90;;;;;;5067041;28;20151;-69
2023/06/23 03:19:33;;;;;;;39.15;35.55;;;18.10;99.90;;;;;;5041343;28;20562;-69
2023/06/23 03:22:19;;;;;;;38.72;35.13;;;17.90;99.90;;;;;;5049491;28;20090;-68
2023/06/23 03:24:52;;;;;;;39.87;36.30;;;18.40;99.90;;;;;;5020205;28;20081;-68
2023/06/23 03:27:20;;;;;;;39.28;35.80;;;19.00;99.90;;;;;;5033973;28;20323;-68
2023/06/23 03:29:53;;;;;;;40.67;36.78;;;19.10;99.90;;;;;;5051867;28;20144;-68
2023/06/23 03:32:26;;;;;;;40.47;36.75;;;18.20;99.90;;;;;;5051725;28;20063;-68
2023/06/23 03:35:01;;;;;;;39.97;36.33;;;18.40;99.90;;;;;;5046493;28;20112;-69
2023/06/23 03:37:30;;;;;;;40.88;37.17;;;18.60;99.90;;;;;;5041109;28;20057;-68
2023/06/23 03:40:00;;;;;;;41.88;37.97;;;19.30;99.90;;;;;;5052071;28;20506;-69
2023/06/23 03:42:27;;;;;;;42.45;38.35;;;19.40;99.90;;;;;;5051760;28;20056;-68
2023/06/23 03:44:55;;;;;;;40.28;36.47;;;19.20;99.90;;;;;;5045551;28;20044;-68
2023/06/23 03:47:23;;;;;;;40.65;36.85;;;18.40;99.90;;;;;;5032481;28;20084;-69
2023/06/23 03:49:56;;;;;;;39.97;36.13;;;17.90;99.90;;;;;;5012155;28;20133;-68
2023/06/23 03:52:23;;;;;;;39.35;35.53;;;18.00;99.90;;;;;;5056673;28;20038;-68
2023/06/23 03:54:52;;;;;;;39.65;35.92;;;19.20;99.90;;;;;;5037062;28;20049;-68
2023/06/23 03:57:20;;;;;;;39.42;35.63;;;19.20;99.90;;;;;;5032683;28;20092;-68
2023/06/23 03:59:49;;;;;;;38.50;34.78;;;18.20;99.90;;;;;;5027908;28;20042;-68
2023/06/23 04:02:17;;;;;;;38.08;34.40;;;18.00;99.90;;;;;;5027560;28;20446;-69
2023/06/23 04:04:45;;;;;;;38.55;34.78;;;17.90;99.90;;;;;;5033252;28;20103;-68
2023/06/23 04:07:12;;;;;;;39.45;35.47;;;18.20;99.90;;;;;;5034011;28;20037;-62
2023/06/23 04:09:43;;;;;;;39.00;35.15;;;17.90;99.90;;;;;;5028638;28;20526;-61
2023/06/23 04:12:12;;;;;;;38.22;34.70;;;18.00;99.90;;;;;;5029357;28;20037;-62
2023/06/23 04:14:41;;;;;;;37.22;33.65;;;18.00;99.90;;;;;;5044549;28;20076;-62
2023/06/23 04:17:08;;;;;;;37.05;33.55;;;19.40;99.90;;;;;;5033632;28;20041;-62
2023/06/23 04:19:35;;;;;;;36.75;33.33;;;18.80;99.90;;;;;;5039048;28;20045;-62
2023/06/23 04:22:04;;;;;;;37.38;33.90;;;19.30;99.90;;;;;;5048964;28;20041;-62
2023/06/23 04:24:32;;;;;;;39.25;35.10;;;19.60;99.90;;;;;;5050368;28;20044;-62
2023/06/23 04:27:01;;;;;;;39.05;35.25;;;18.40;99.90;;;;;;5050728;28;20415;-62
2023/06/23 04:29:27;;;;;;;38.88;35.30;;;19.60;99.90;;;;;;5049182;28;20434;-62
2023/06/23 04:31:54;;;;;;;40.20;36.20;;;18.40;99.90;;;;;;5044690;28;20116;-62
2023/06/23 04:34:20;;;;;;;39.42;35.90;;;18.40;99.90;;;;;;5050802;28;20029;-62
2023/06/23 04:36:50;;;;;;;40.40;36.42;;;18.40;99.90;;;;;;5049355;28;20407;-62
2023/06/23 04:39:31;;;;;;;41.42;37.42;;;19.30;99.90;;;;;;5049462;28;20037;-62
2023/06/23 04:42:02;;;;;;;41.13;36.83;;;18.50;99.90;;;;;;5050934;28;20053;-62
2023/06/23 04:44:30;;;;;;;41.17;37.13;;;19.90;99.90;;;;;;5049232;28;20067;-62
2023/06/23 04:47:02;;;;;;;42.08;37.88;;;18.50;99.90;;;;;;5050223;28;20511;-61
2023/06/23 04:49:31;;;;;;;40.75;36.95;;;18.30;99.90;;;;;;5049604;28;20044;-62
2023/06/23 04:52:02;;;;;;;40.47;36.78;;;18.70;99.90;;;;;;5050176;28;20043;-62
2023/06/23 04:54:42;;;;;;;40.30;36.40;;;19.90;99.90;;;;;;5067285;28;20045;-62
2023/06/23 04:57:15;;;;;;;42.05;38.17;;;18.70;99.90;;;;;;5029479;28;20127;-62
2023/06/23 04:59:45;;;;;;;42.25;38.28;;;19.20;99.90;;;;;;5029291;28;20522;-62
2023/06/23 05:02:12;;;;;;;42.25;38.42;;;19.80;99.90;;;;;;5050335;28;20037;-62
2023/06/23 05:04:40;;;;;;;41.75;37.90;;;19.50;99.90;;;;;;5048006;28;20036;-62
2023/06/23 05:07:08;;;;;;;41.60;37.70;;;19.30;99.90;;;;;;5046695;28;20049;-62
2023/06/23 05:09:35;;;;;;;42.20;38.13;;;20.00;99.90;;;;;;5049296;28;20545;-62
2023/06/23 05:12:03;;;;;;;41.47;37.75;;;19.90;99.90;;;;;;5049976;28;20041;-62
2023/06/23 05:14:30;;;;;;;41.63;37.92;;;18.70;99.90;;;;;;5046193;28;20687;-62
2023/06/23 05:16:59;;;;;;;40.50;36.80;;;19.10;99.90;;;;;;5029865;28;20049;-62
2023/06/23 05:19:27;;;;;;;43.55;39.45;;;19.40;99.90;;;;;;5046515;28;20491;-62
2023/06/23 05:21:55;;;;;;;42.25;38.58;;;18.70;99.90;;;;;;5050034;28;20542;-62
2023/06/23 05:24:25;;;;;;;42.42;38.50;;;19.00;99.90;;;;;;5032827;28;20049;-62
2023/06/23 05:26:54;;;;;;;43.35;39.33;;;20.00;99.90;;;;;;5032034;28;20040;-62
2023/06/23 05:29:22;;;;;;;42.88;39.05;;;20.20;99.90;;;;;;5037058;28;20116;-62
2023/06/23 05:31:50;;;;;;;41.53;37.72;;;19.20;99.90;;;;;;5028527;28;20554;-61
2023/06/23 05:34:18;;;;;;;42.35;38.47;;;18.90;99.90;;;;;;5030919;28;20033;-61
2023/06/23 05:36:46;;;;;;;42.58;38.95;;;19.30;99.90;;;;;;5031809;28;20057;-62
2023/06/23 05:39:15;;;;;;;40.03;36.53;;;20.30;99.90;;;;;;5029677;28;20083;-62
2023/06/23 05:41:41;;;;;;;39.90;36.22;;;20.10;99.90;;;;;;5026829;28;20084;-62
2023/06/23 05:44:07;;;;;;;41.25;37.42;;;19.10;99.90;;;;;;5029747;28;20150;-62
2023/06/23 05:46:35;;;;;;;42.70;38.80;;;20.60;99.90;;;;;;5032744;28;20037;-62
2023/06/23 05:49:07;;;;;;;41.08;37.47;;;19.10;99.90;;;;;;5025482;28;20048;-62
2023/06/23 05:51:34;;;;;;;41.58;37.88;;;20.30;99.90;;;;;;5035634;28;20029;-62
2023/06/23 05:54:03;;;;;;;40.30;36.70;;;20.80;99.90;;;;;;5029043;28;20049;-61
2023/06/23 05:56:35;;;;;;;40.25;36.42;;;19.50;99.90;;;;;;5012569;28;20076;-61
2023/06/23 05:59:05;;;;;;;37.35;34.15;;;20.40;99.90;;;;;;5023119;28;20718;-61
2023/06/23 06:01:34;;;;;;;38.03;34.40;;;20.20;99.90;;;;;;5028024;28;20029;-62
2023/06/23 06:04:06;;;;;;;37.90;34.35;;;20.40;99.90;;;;;;5040848;28;20072;-62
2023/06/23 06:06:35;;;;;;;37.90;34.50;;;20.50;99.90;;;;;;5028772;28;20064;-62
2023/06/23 06:09:02;;;;;;;37.15;33.85;;;19.10;99.90;;;;;;5034870;28;20095;-62
2023/06/23 06:11:28;;;;;;;37.50;34.17;;;19.20;99.90;;;;;;5041047;28;20037;-61
2023/06/23 06:13:57;;;;;;;36.60;33.47;;;19.80;99.90;;;;;;5037920;28;20041;-61
2023/06/23 06:16:23;;;;;;;35.83;32.63;;;19.60;99.90;;;;;;5033606;28;20046;-61
2023/06/23 06:18:50;;;;;;;38.22;34.70;;;20.10;99.90;;;;;;5024562;28;20052;-61
2023/06/23 06:21:17;;;;;;;36.15;33.00;;;19.60;99.90;;;;;;5009615;28;20041;-62
2023/06/23 06:23:44;;;;;;;35.08;31.58;;;20.30;99.90;;;;;;5022882;28;20049;-61
2023/06/23 06:26:11;;;;;;;35.15;32.00;;;20.40;99.90;;;;;;5027989;28;20084;-61
2023/06/23 06:28:39;;;;;;;33.58;30.67;;;20.10;99.90;;;;;;5056148;28;20083;-61
2023/06/23 06:31:07;;;;;;;34.15;30.90;;;21.20;99.90;;;;;;5032978;28;20033;-62
2023/06/23 06:33:35;;;;;;;35.20;31.75;;;21.00;99.90;;;;;;5030332;28;20045;-61
2023/06/23 06:36:04;;;;;;;35.38;32.28;;;20.80;99.90;;;;;;5019021;28;20048;-61
2023/06/23 06:38:35;;;;;;;37.03;33.72;;;20.70;99.90;;;;;;5066005;28;20106;-61
2023/06/23 06:41:04;;;;;;;35.95;32.83;;;20.50;99.90;;;;;;5028183;28;20573;-61
2023/06/23 06:43:30;;;;;;;34.72;31.23;;;20.80;99.90;;;;;;5028894;28;20144;-61
2023/06/23 06:45:56;;;;;;;32.72;29.73;;;20.80;99.90;;;;;;5027127;28;20132;-61
2023/06/23 06:48:26;;;;;;;31.73;28.83;;;21.40;99.90;;;;;;5029107;28;20026;-61
2023/06/23 06:50:53;;;;;;;34.08;31.00;;;20.90;99.90;;;;;;5027244;28;20064;-61
2023/06/23 06:53:20;;;;;;;34.83;31.50;;;21.40;99.90;;;;;;5032393;28;20092;-61
2023/06/23 06:55:46;;;;;;;34.83;31.67;;;20.90;99.90;;;;;;5034387;28;20397;-60
2023/06/23 06:58:11;;;;;;;34.53;31.42;;;20.90;99.90;;;;;;5040173;28;20049;-63
2023/06/23 07:00:37;;;;;;;32.33;29.55;;;21.30;99.90;;;;;;5029277;28;20037;-62
2023/06/23 07:03:04;;;;;;;34.38;31.20;;;20.80;99.90;;;;;;5037142;28;20068;-62
2023/06/23 07:05:29;;;;;;;32.35;29.45;;;21.20;99.90;;;;;;5028829;28;20033;-62
2023/06/23 07:07:55;;;;;;;34.47;31.38;;;21.40;99.90;;;;;;5037930;28;20044;-62
2023/06/23 07:10:21;;;;;;;32.33;29.50;;;21.30;99.90;;;;;;5019835;28;20468;-62
2023/06/23 07:12:46;;;;;;;33.80;30.80;;;21.60;99.90;;;;;;5024004;28;20041;-62
2023/06/23 07:15:12;;;;;;;34.42;31.40;;;21.30;99.90;;;;;;5029708;28;20034;-62
2023/06/23 07:17:38;;;;;;;34.72;31.60;;;21.40;99.90;;;;;;5032864;28;20104;-62
2023/06/23 07:20:04;;;;;;;34.53;31.52;;;21.60;99.90;;;;;;5026394;28;20056;-62
2023/06/23 07:22:30;;;;;;;34.38;31.20;;;21.40;99.90;;;;;;5027024;28;20068;-62
2023/06/23 07:24:55;;;;;;;33.15;30.08;;;21.30;99.90;;;;;;5025172;28;20041;-62
2023/06/23 07:27:21;;;;;;;36.25;33.00;;;21.70;99.90;;;;;;5030210;28;20105;-62
2023/06/23 07:29:47;;;;;;;35.55;32.30;;;21.60;99.90;;;;;;5032525;28;20028;-62
2023/06/23 07:32:14;;;;;;;35.58;32.40;;;21.70;99.90;;;;;;5035571;28;20040;-62
2023/06/23 07:34:41;;;;;;;35.90;32.60;;;21.80;99.90;;;;;;5021798;28;20037;-62
2023/06/23 07:37:08;;;;;;;35.13;32.05;;;21.50;99.90;;;;;;5027515;28;20048;-62
2023/06/23 07:39:35;;;;;;;33.53;30.30;;;21.50;99.90;;;;;;5031317;28;20041;-62
2023/06/23 07:42:00;;;;;;;34.40;31.20;;;21.80;99.90;;;;;;5026680;28;20060;-62
2023/06/23 07:44:26;;;;;;;35.78;32.55;;;22.20;99.90;;;;;;5030738;28;20072;-62
2023/06/23 07:46:52;;;;;;;33.47;30.67;;;22.10;99.90;;;;;;5027305;28;20100;-62
2023/06/23 07:49:17;;;;;;;32.85;29.88;;;22.30;99.90;;;;;;5022745;28;20495;-62
2023/06/23 07:51:43;;;;;;;35.17;31.77;;;22.30;1.00;;;;;;5028833;28;20040;-62
2023/06/23 07:54:08;;;;;;;35.25;31.90;;;21.90;56.90;;;;;;5029937;28;20049;-62
2023/06/23 07:56:34;;;;;;;33.58;30.63;;;21.90;99.90;;;;;;5027602;28;20496;-62
2023/06/23 07:59:00;;;;;;;34.85;31.85;;;21.90;79.30;;;;;;5031819;28;20044;-62
2023/06/23 08:01:25;;;;;;;31.55;28.83;;;22.30;99.90;;;;;;5038154;28;20040;-61
2023/06/23 08:03:51;;;;;;;33.63;30.52;;;22.50;99.90;;;;;;5030019;28;20403;-61
2023/06/23 08:06:23;;;;;;;35.78;32.67;;;22.30;99.90;;;;;;5019289;28;20060;-62
2023/06/23 08:08:51;;;;;;;34.47;31.33;;;22.00;1.00;;;;;;5033363;28;20294;-62
2023/06/23 08:11:17;;;;;;;33.72;30.73;;;22.20;1.00;;;;;;5028140;28;20503;-62
2023/06/23 08:13:43;;;;;;;35.22;31.80;;;22.00;99.90;;;;;;5019583;28;20128;-62
2023/06/23 08:16:10;;;;;;;32.75;29.85;;;22.00;99.90;;;;;;5031818;28;20513;-62
2023/06/23 08:18:36;;;;;;;34.58;31.30;;;22.20;1.00;;;;;;5032767;28;20042;-62
2023/06/23 08:21:03;;;;;;;33.78;30.77;;;22.10;99.90;;;;;;5027930;28;20435;-62
2023/06/23 08:23:28;;;;;;;36.15;32.65;;;22.50;99.90;;;;;;5054279;28;20054;-62
2023/06/23 08:25:54;;;;;;;36.30;32.85;;;22.30;99.90;;;;;;5013341;28;20071;-62
2023/06/23 08:28:20;;;;;;;35.30;31.85;;;22.00;1.00;;;;;;5011078;28;20045;-62
2023/06/23 08:30:45;;;;;;;34.20;31.20;;;22.00;99.90;;;;;;5027261;28;20041;-62
2023/06/23 08:33:11;;;;;;;35.30;32.10;;;22.30;25.30;;;;;;5023231;28;20038;-62
2023/06/23 08:35:36;;;;;;;35.50;32.40;;;22.00;99.90;;;;;;5033641;28;20050;-61
2023/06/23 08:38:02;;;;;;;32.70;29.70;;;22.20;99.90;;;;;;5028457;28;20076;-62
2023/06/23 08:40:28;;;;;;;32.40;29.80;;;22.60;99.90;;;;;;5028320;28;20037;-62
2023/06/23 08:42:54;;;;;;;31.95;29.10;;;22.40;1.00;;;;;;5032419;28;20049;-61
2023/06/23 08:45:22;;;;;;;34.70;31.50;;;22.50;1.00;;;;;;5040077;28;20499;-62
2023/06/23 08:47:52;;;;;;;34.78;31.77;;;22.70;99.90;;;;;;5024851;28;20051;-62
2023/06/23 08:50:20;;;;;;;33.63;30.63;;;22.70;99.90;;;;;;5028537;28;20026;-62
2023/06/23 08:52:46;;;;;;;35.20;27.63;;;22.70;99.90;;;;;;5032317;28;20041;-61
2023/06/23 08:55:12;;;;;;;31.42;28.60;;;22.90;99.90;;;;;;5027511;28;20124;-62
2023/06/23 08:57:38;;;;;;;30.10;27.60;;;22.90;25.20;;;;;;5035141;28;20029;-62
2023/06/23 09:00:06;;;;;;;30.92;28.30;;;22.90;1.00;;;;;;5025706;28;20077;-61
2023/06/23 09:02:32;;;;;;;33.95;30.77;;;22.80;99.90;;;;;;5020663;28;20041;-61
2023/06/23 09:04:57;;;;;;;32.05;29.20;;;22.80;99.90;;;;;;5026868;28;20569;-62
2023/06/23 09:07:24;;;;;;;30.88;28.17;;;22.90;99.90;;;;;;5029642;28;20563;-62
2023/06/23 09:09:50;;;;;;;30.73;28.13;;;23.00;99.90;;;;;;5024825;28;20051;-62
2023/06/23 09:12:20;;;;;;;30.98;28.38;;;22.90;99.90;;;;;;5029779;28;20041;-62
2023/06/23 09:14:48;;;;;;;31.77;29.00;;;22.80;16.90;;;;;;5031468;28;20029;-62
2023/06/23 09:17:15;;;;;;;28.58;26.25;;;23.00;99.90;;;;;;5026206;28;20071;-62
2023/06/23 09:19:42;;;;;;;32.60;29.60;;;22.80;36.90;;;;;;5025581;28;20097;-62
2023/06/23 09:22:09;;;;;;;35.20;32.10;;;22.70;99.90;;;;;;5020413;28;20124;-61
2023/06/23 09:24:45;;;;;;;36.22;33.00;;;22.50;1.00;;;;;;5018705;28;20396;-62
2023/06/23 09:27:10;;;;;;;37.60;33.60;;;22.60;1.00;;;;;;5025658;28;20724;-61
2023/06/23 09:29:37;;;;;;;34.28;31.27;;;22.50;1.00;;;;;;5031155;28;20029;-61
2023/06/23 09:32:03;;;;;;;36.55;33.38;;;22.40;1.00;;;;;;5025328;28;20073;-61
2023/06/23 09:34:33;;;;;;;37.05;33.65;;;22.20;1.00;;;;;;5021327;28;20037;-61
2023/06/23 09:37:14;;;;;;;36.75;33.45;;;22.20;1.00;;;;;;5013920;28;20136;-61
2023/06/23 09:39:43;;;;;;;35.05;32.05;;;22.40;1.00;;;;;;5033518;28;20098;-60
2023/06/23 09:42:13;;;;;;;34.20;31.20;;;22.40;1.00;;;;;;5014838;28;20532;-61
2023/06/23 09:44:40;;;;;;;32.65;29.85;;;22.40;1.00;;;;;;5021082;28;20063;-61
2023/06/23 09:47:06;;;;;;;34.80;31.60;;;22.40;1.00;;;;;;5026205;28;20042;-60
2023/06/23 09:49:39;;;;;;;32.50;29.63;;;22.60;93.50;;;;;;5026386;28;20068;-61
2023/06/23 09:52:06;;;;;;;34.38;31.38;;;22.60;1.00;;;;;;5021906;28;20037;-61
2023/06/23 09:54:36;;;;;;;33.00;30.35;;;22.40;1.00;;;;;;5022862;28;20065;-61
2023/06/23 09:57:12;;;;;;;34.20;31.10;;;22.40;99.90;;;;;;5059118;28;20084;-61
2023/06/23 09:59:41;;;;;;;34.33;31.33;;;22.30;99.90;;;;;;5026220;28;20092;-61
2023/06/23 10:02:09;;;;;;;34.17;31.17;;;22.20;99.90;;;;;;5026129;28;20041;-60
2023/06/23 10:04:35;;;;;;;35.00;31.85;;;22.20;99.90;;;;;;5023554;28;20110;-61
2023/06/23 10:07:21;;;;;;;35.53;32.38;;;22.30;99.90;;;;;;5025456;28;20037;-61
2023/06/23 10:09:55;;;;;;;32.05;29.00;;;22.30;99.90;;;;;;5028285;28;20594;-61
2023/06/23 10:12:22;;;;;;;31.90;29.15;;;22.40;99.90;;;;;;5028067;28;20042;-61
2023/06/23 10:14:50;;;;;;;31.95;29.15;;;22.40;99.90;;;;;;5041239;28;20042;-61
2023/06/23 10:17:16;;;;;;;31.95;29.08;;;22.60;99.90;;;;;;5029511;28;20045;-61
2023/06/23 10:19:44;;;;;;;34.97;31.65;;;22.50;99.90;;;;;;5038934;28;20041;-61
2023/06/23 10:22:12;;;;;;;33.10;29.98;;;22.30;99.90;;;;;;5033326;28;20495;-61
2023/06/23 10:24:37;;;;;;;30.17;27.67;;;22.50;99.90;;;;;;5039319;28;20069;-61
2023/06/23 10:27:04;;;;;;;33.13;30.23;;;22.50;99.90;;;;;;5028202;28;20468;-61
2023/06/23 10:29:34;;;;;;;33.25;30.08;;;22.30;99.90;;;;;;5016243;28;20412;-61
2023/06/23 10:32:00;;;;;;;29.80;27.20;;;22.20;99.90;;;;;;5013865;28;20411;-61
2023/06/23 10:34:27;;;;;;;33.20;30.20;;;22.30;99.90;;;;;;5039046;28;20565;-61
2023/06/23 10:36:56;;;;;;;32.28;29.27;;;22.30;99.90;;;;;;5047149;28;20396;-61
2023/06/23 10:39:24;;;;;;;33.55;30.40;;;22.10;99.90;;;;;;5028911;28;20052;-61
2023/06/23 10:41:53;;;;;;;30.58;28.08;;;22.10;99.90;;;;;;5027503;28;20049;-61
2023/06/23 10:44:19;;;;;;;30.45;27.80;;;22.10;1.00;;;;;;5019419;28;20069;-60
2023/06/23 10:46:46;;;;;;;30.08;27.30;;;22.10;99.90;;;;;;5051638;28;20399;-61
2023/06/23 10:49:12;;;;;;;25.67;23.48;;;22.10;99.90;;;;;;5021224;28;20530;-61
2023/06/23 10:51:38;;;;;;;27.52;25.20;;;22.20;99.90;;;;;;5017508;28;20358;-61
2023/06/23 10:54:07;;;;;;;29.42;27.13;;;22.20;99.90;;;;;;5021898;28;20049;-61
2023/06/23 10:56:35;;;;;;;31.60;28.65;;;22.10;37.80;;;;;;5060408;28;20045;-61
2023/06/23 10:59:20;;;;;;;26.88;24.63;;;22.10;56.40;;;;;;5019705;28;20092;-60
2023/06/23 11:02:00;;;;;;;29.17;26.67;;;22.10;36.20;;;;;;5034407;28;20040;-60
2023/06/23 11:04:27;;;;;;;27.60;25.25;;;22.20;56.50;;;;;;5039166;28;20029;-61
2023/06/23 11:07:06;;;;;;;25.13;23.13;;;22.40;36.80;;;;;;5019028;28;20042;-60
2023/06/23 11:09:55;;;;;;;30.17;27.10;;;22.30;1.00;;;;;;5031325;28;20606;-60
2023/06/23 11:12:38;;;;;;;27.92;25.73;;;22.30;1.00;;;;;;5025674;28;20562;-61
2023/06/23 11:15:16;;;;;;;29.27;26.77;;;22.40;1.00;;;;;;5031814;28;20400;-60
2023/06/23 11:17:45;;;;;;;27.55;25.38;;;22.30;1.00;;;;;;5030674;28;20044;-60
2023/06/23 11:20:24;;;;;;;25.48;23.13;;;22.30;1.00;;;;;;5026552;28;20081;-60
2023/06/23 11:23:05;;;;;;;25.17;22.90;;;22.30;1.00;;;;;;5026869;28;20057;-61
2023/06/23 11:25:34;;;;;;;23.48;21.23;;;22.40;1.00;;;;;;5027151;28;20040;-61
2023/06/23 11:28:34;;;;;;;26.50;24.15;;;22.30;1.00;;;;;;5031674;28;20038;-69
2023/06/23 11:30:59;;;;;;;21.15;19.35;;;22.40;1.00;;;;;;5033491;28;20115;-69
2023/06/23 11:33:32;;;;;;;21.27;19.05;;;22.20;1.00;;;;;;5032645;28;20594;-69
2023/06/23 11:36:15;;;;;;;23.80;21.60;;;22.30;99.90;;;;;;5023377;28;20040;-68
2023/06/23 11:38:43;;;;;;;24.80;22.40;;;22.20;1.00;;;;;;5057795;28;20044;-69
2023/06/23 11:41:09;;;;;;;23.20;21.30;;;22.20;1.00;;;;;;5041299;28;20041;-69
2023/06/23 11:43:40;;;;;;;23.58;21.67;;;22.20;1.00;;;;;;5029202;28;20424;-69
2023/06/23 11:46:11;;;;;;;22.83;20.90;;;22.20;1.00;;;;;;5020031;28;20120;-69
2023/06/23 11:48:36;;;;;;;26.33;23.92;;;22.30;1.00;;;;;;5025099;28;20049;-68
2023/06/23 11:51:04;;;;;;;29.13;26.42;;;22.30;1.00;;;;;;5028890;28;20456;-68
2023/06/23 11:53:30;;;;;;;25.27;23.00;;;22.30;1.00;;;;;;5015880;28;20041;-70
2023/06/23 11:55:56;;;;;;;27.23;24.65;;;22.20;1.00;;;;;;5024690;28;20044;-69
2023/06/23 11:58:22;;;;;;;28.25;25.85;;;22.30;1.00;;;;;;5029550;28;20069;-68
2023/06/23 12:00:47;;;;;;;26.92;24.50;;;22.40;1.00;;;;;;5027837;28;20646;-68
2023/06/23 12:03:16;;;;;;;27.88;25.50;;;22.50;1.00;;;;;;5029643;28;20069;-69
2023/06/23 12:05:43;;;;;;;27.33;25.02;;;22.40;1.00;;;;;;5029671;28;20048;-69
2023/06/23 12:08:09;;;;;;;27.65;25.27;;;22.50;1.00;;;;;;5030270;28;20049;-68
2023/06/23 12:10:41;;;;;;;27.08;24.77;;;22.50;1.00;;;;;;5030204;28;20052;-68
2023/06/23 12:13:09;;;;;;;28.58;26.08;;;22.50;99.90;;;;;;5030122;28;20042;-67
2023/06/23 12:15:42;;;;;;;28.35;25.35;;;22.40;1.00;;;;;;5043387;28;20037;-67
2023/06/23 12:18:09;;;;;;;28.58;26.17;;;22.50;1.00;;;;;;5030734;28;20041;-68
2023/06/23 12:20:40;;;;;;;28.50;26.15;;;22.40;1.00;;;;;;5020556;28;20044;-68
2023/06/23 12:23:08;;;;;;;26.63;24.33;;;22.40;1.00;;;;;;5030884;28;20049;-68
2023/06/23 12:25:38;;;;;;;26.23;23.85;;;22.70;1.00;;;;;;5030749;28;20045;-69
2023/06/23 12:28:05;;;;;;;28.00;25.60;;;22.30;1.00;;;;;;5030463;28;20388;-68
2023/06/23 12:30:41;;;;;;;27.52;24.90;;;22.40;1.00;;;;;;5031730;28;20064;-69
2023/06/23 12:33:29;;;;;;;28.17;25.30;;;22.50;18.20;;;;;;5015229;28;20030;-68
2023/06/23 12:36:02;;;;;;;27.27;24.92;;;22.50;1.00;;;;;;5024832;28;20029;-68
2023/06/23 12:38:29;;;;;;;28.38;25.67;;;22.40;1.00;;;;;;5027884;28;20052;-68